KPWM/PWM METAR and TAF weather

Enter ICAO airport designator
Station Type Date Time Source
KPWM METAR 2018/12/15 20:51 UTC NOAA

KPWM 152051Z VRB05KT 10SM BKN200 06/M03 A3020 RMK AO2 SLP227 T00561033 51016


Station Type Date Time Source
KPWM Decoded METAR 2018/12/15 20:51 UTC NOAA

PORTLAND INTERNATIONAL JETPORT, ME, United States (KPWM) 43-39N 70-18W 15M
Dec 15, 2018 - 03:51 PM EST / 2018.12.15 2051 UTC
Wind: Variable at 6 MPH (5 KT):0
Visibility: 10 mile(s):0
Sky conditions: mostly cloudy
Temperature: 42.1 F (5.6 C)
Dew Point: 26.1 F (-3.3 C)
Relative Humidity: 52%
Pressure (altimeter): 30.2 in. Hg (1022 hPa)
Pressure tendency: 0.05 inches (1.6 hPa) higher than three hours ago
ob: KPWM 152051Z VRB05KT 10SM BKN200 06/M03 A3020 RMK AO2 SLP227 T00561033 51016
cycle: 21

Station Type Date Time Source
KPWM TAF 2018/12/15 18:27 UTC NOAA

TAF KPWM 151722Z 1518/1618 32008KT P6SM BKN250
FM160300 01005KT P6SM FEW250
FM161500 04008KT P6SM BKN250


Example: see airport list